sensor_id;sensor_type;location;lat;lon;timestamp;P1;durP1;ratioP1;P2;durP2;ratioP2
3653;SDS011;70277;54.302;10.064;2023-07-20T00:02:03;3.63;;;1.60;;
3653;SDS011;70277;54.302;10.064;2023-07-20T00:04:49;1.58;;;1.48;;
3653;SDS011;70277;54.302;10.064;2023-07-20T00:07:15;3.60;;;1.30;;
3653;SDS011;70277;54.302;10.064;2023-07-20T00:09:42;2.40;;;1.40;;
3653;SDS011;70277;54.302;10.064;2023-07-20T00:12:08;1.70;;;1.58;;
3653;SDS011;70277;54.302;10.064;2023-07-20T00:14:35;1.50;;;1.40;;
3653;SDS011;70277;54.302;10.064;2023-07-20T00:17:02;1.90;;;1.40;;
3653;SDS011;70277;54.302;10.064;2023-07-20T00:19:28;2.40;;;1.50;;
3653;SDS011;70277;54.302;10.064;2023-07-20T00:21:56;2.45;;;1.48;;
3653;SDS011;70277;54.302;10.064;2023-07-20T00:24:23;1.50;;;1.40;;
3653;SDS011;70277;54.302;10.064;2023-07-20T00:26:49;1.10;;;1.10;;
3653;SDS011;70277;54.302;10.064;2023-07-20T00:29:16;1.48;;;1.38;;
3653;SDS011;70277;54.302;10.064;2023-07-20T00:31:42;1.55;;;1.45;;
3653;SDS011;70277;54.302;10.064;2023-07-20T00:34:10;2.75;;;1.60;;
3653;SDS011;70277;54.302;10.064;2023-07-20T00:36:36;2.75;;;1.48;;
3653;SDS011;70277;54.302;10.064;2023-07-20T00:39:03;2.75;;;1.52;;
3653;SDS011;70277;54.302;10.064;2023-07-20T00:41:29;1.38;;;1.20;;
3653;SDS011;70277;54.302;10.064;2023-07-20T00:43:56;3.15;;;1.83;;
3653;SDS011;70277;54.302;10.064;2023-07-20T00:46:23;4.15;;;1.38;;
3653;SDS011;70277;54.302;10.064;2023-07-20T00:48:51;1.20;;;1.20;;
3653;SDS011;70277;54.302;10.064;2023-07-20T00:51:20;1.50;;;1.40;;
3653;SDS011;70277;54.302;10.064;2023-07-20T00:53:47;5.43;;;1.33;;
3653;SDS011;70277;54.302;10.064;2023-07-20T00:56:15;2.13;;;1.30;;
3653;SDS011;70277;54.302;10.064;2023-07-20T00:58:42;2.53;;;1.55;;
3653;SDS011;70277;54.302;10.064;2023-07-20T01:01:08;2.17;;;1.27;;
3653;SDS011;70277;54.302;10.064;2023-07-20T01:03:35;1.50;;;1.40;;
3653;SDS011;70277;54.302;10.064;2023-07-20T01:09:01;2.95;;;1.20;;
3653;SDS011;70277;54.302;10.064;2023-07-20T01:11:36;4.63;;;1.65;;
3653;SDS011;70277;54.302;10.064;2023-07-20T01:14:07;2.00;;;1.20;;
3653;SDS011;70277;54.302;10.064;2023-07-20T01:16:35;4.10;;;1.60;;
3653;SDS011;70277;54.302;10.064;2023-07-20T01:19:01;2.17;;;1.50;;
3653;SDS011;70277;54.302;10.064;2023-07-20T01:21:33;1.45;;;1.35;;
3653;SDS011;70277;54.302;10.064;2023-07-20T01:24:19;3.70;;;1.40;;
3653;SDS011;70277;54.302;10.064;2023-07-20T01:33:08;2.65;;;2.10;;
3653;SDS011;70277;54.302;10.064;2023-07-20T01:35:37;3.28;;;1.65;;
3653;SDS011;70277;54.302;10.064;2023-07-20T01:38:05;3.40;;;1.90;;
3653;SDS011;70277;54.302;10.064;2023-07-20T01:40:33;1.80;;;1.70;;
3653;SDS011;70277;54.302;10.064;2023-07-20T01:43:01;3.40;;;2.00;;
3653;SDS011;70277;54.302;10.064;2023-07-20T01:45:28;2.10;;;1.90;;
3653;SDS011;70277;54.302;10.064;2023-07-20T01:47:55;5.38;;;2.10;;
3653;SDS011;70277;54.302;10.064;2023-07-20T01:50:22;1.73;;;1.63;;
3653;SDS011;70277;54.302;10.064;2023-07-20T01:52:48;2.42;;;2.22;;
3653;SDS011;70277;54.302;10.064;2023-07-20T01:55:15;2.67;;;2.00;;
3653;SDS011;70277;54.302;10.064;2023-07-20T01:57:41;1.73;;;1.63;;
3653;SDS011;70277;54.302;10.064;2023-07-20T02:00:14;5.50;;;1.70;;
3653;SDS011;70277;54.302;10.064;2023-07-20T02:02:41;1.80;;;1.70;;
3653;SDS011;70277;54.302;10.064;2023-07-20T02:05:08;1.88;;;1.77;;
3653;SDS011;70277;54.302;10.064;2023-07-20T02:07:35;2.08;;;1.77;;
3653;SDS011;70277;54.302;10.064;2023-07-20T02:10:01;2.17;;;1.98;;
3653;SDS011;70277;54.302;10.064;2023-07-20T02:12:28;2.92;;;2.55;;
3653;SDS011;70277;54.302;10.064;2023-07-20T02:14:54;2.05;;;1.92;;
3653;SDS011;70277;54.302;10.064;2023-07-20T02:17:20;2.03;;;1.92;;
3653;SDS011;70277;54.302;10.064;2023-07-20T02:19:50;9.23;;;1.58;;
3653;SDS011;70277;54.302;10.064;2023-07-20T02:22:18;2.20;;;1.70;;
3653;SDS011;70277;54.302;10.064;2023-07-20T02:24:44;2.05;;;1.88;;
3653;SDS011;70277;54.302;10.064;2023-07-20T02:27:11;3.17;;;1.50;;
3653;SDS011;70277;54.302;10.064;2023-07-20T02:29:37;1.90;;;1.80;;
3653;SDS011;70277;54.302;10.064;2023-07-20T02:32:04;4.25;;;2.10;;
3653;SDS011;70277;54.302;10.064;2023-07-20T02:34:31;4.78;;;1.63;;
3653;SDS011;70277;54.302;10.064;2023-07-20T02:36:57;2.05;;;1.85;;
3653;SDS011;70277;54.302;10.064;2023-07-20T02:39:25;1.95;;;1.85;;
3653;SDS011;70277;54.302;10.064;2023-07-20T02:41:53;4.38;;;2.00;;
3653;SDS011;70277;54.302;10.064;2023-07-20T02:44:20;2.33;;;1.70;;
3653;SDS011;70277;54.302;10.064;2023-07-20T02:46:46;1.98;;;1.60;;
3653;SDS011;70277;54.302;10.064;2023-07-20T02:49:14;1.70;;;1.48;;
3653;SDS011;70277;54.302;10.064;2023-07-20T02:51:41;2.75;;;1.70;;
3653;SDS011;70277;54.302;10.064;2023-07-20T02:54:08;2.10;;;1.90;;
3653;SDS011;70277;54.302;10.064;2023-07-20T02:56:34;2.55;;;1.50;;
3653;SDS011;70277;54.302;10.064;2023-07-20T02:59:01;1.50;;;1.40;;
3653;SDS011;70277;54.302;10.064;2023-07-20T03:01:29;1.92;;;1.60;;
3653;SDS011;70277;54.302;10.064;2023-07-20T03:03:56;1.60;;;1.50;;
3653;SDS011;70277;54.302;10.064;2023-07-20T03:06:22;4.43;;;1.48;;
3653;SDS011;70277;54.302;10.064;2023-07-20T03:08:49;2.63;;;1.58;;
3653;SDS011;70277;54.302;10.064;2023-07-20T03:11:18;6.10;;;1.65;;
3653;SDS011;70277;54.302;10.064;2023-07-20T03:13:46;8.30;;;2.45;;
3653;SDS011;70277;54.302;10.064;2023-07-20T03:16:14;3.60;;;1.50;;
3653;SDS011;70277;54.302;10.064;2023-07-20T03:21:10;3.10;;;1.50;;
3653;SDS011;70277;54.302;10.064;2023-07-20T03:23:38;1.83;;;1.30;;
3653;SDS011;70277;54.302;10.064;2023-07-20T03:26:08;2.15;;;1.60;;
3653;SDS011;70277;54.302;10.064;2023-07-20T03:28:35;4.13;;;1.35;;
3653;SDS011;70277;54.302;10.064;2023-07-20T03:31:02;3.38;;;1.30;;
3653;SDS011;70277;54.302;10.064;2023-07-20T03:33:29;1.60;;;1.50;;
3653;SDS011;70277;54.302;10.064;2023-07-20T03:35:57;1.88;;;1.77;;
3653;SDS011;70277;54.302;10.064;2023-07-20T03:38:24;1.50;;;1.50;;
3653;SDS011;70277;54.302;10.064;2023-07-20T03:40:55;6.38;;;1.70;;
3653;SDS011;70277;54.302;10.064;2023-07-20T03:43:25;2.22;;;1.45;;
3653;SDS011;70277;54.302;10.064;2023-07-20T03:45:53;3.33;;;1.90;;
3653;SDS011;70277;54.302;10.064;2023-07-20T03:48:21;3.20;;;1.42;;
3653;SDS011;70277;54.302;10.064;2023-07-20T03:50:49;2.08;;;1.35;;
3653;SDS011;70277;54.302;10.064;2023-07-20T03:53:17;2.67;;;1.27;;
3653;SDS011;70277;54.302;10.064;2023-07-20T03:55:44;3.72;;;1.40;;
3653;SDS011;70277;54.302;10.064;2023-07-20T03:58:12;7.57;;;1.73;;
3653;SDS011;70277;54.302;10.064;2023-07-20T04:00:40;5.20;;;2.50;;
3653;SDS011;70277;54.302;10.064;2023-07-20T04:03:10;5.25;;;2.25;;
3653;SDS011;70277;54.302;10.064;2023-07-20T04:05:37;6.97;;;2.05;;
3653;SDS011;70277;54.302;10.064;2023-07-20T04:08:03;6.95;;;2.30;;
3653;SDS011;70277;54.302;10.064;2023-07-20T04:10:30;2.80;;;1.50;;
3653;SDS011;70277;54.302;10.064;2023-07-20T04:12:56;4.65;;;1.45;;
3653;SDS011;70277;54.302;10.064;2023-07-20T04:15:23;1.70;;;1.20;;
3653;SDS011;70277;54.302;10.064;2023-07-20T04:17:49;1.20;;;1.10;;
3653;SDS011;70277;54.302;10.064;2023-07-20T04:20:16;3.72;;;1.20;;
3653;SDS011;70277;54.302;10.064;2023-07-20T04:22:44;4.65;;;1.10;;
3653;SDS011;70277;54.302;10.064;2023-07-20T04:25:10;6.55;;;1.30;;
3653;SDS011;70277;54.302;10.064;2023-07-20T04:27:37;5.57;;;1.52;;
3653;SDS011;70277;54.302;10.064;2023-07-20T04:30:03;1.65;;;1.52;;
3653;SDS011;70277;54.302;10.064;2023-07-20T04:32:30;1.48;;;1.27;;
3653;SDS011;70277;54.302;10.064;2023-07-20T04:35:05;3.30;;;1.40;;
3653;SDS011;70277;54.302;10.064;2023-07-20T04:37:33;1.80;;;1.20;;
3653;SDS011;70277;54.302;10.064;2023-07-20T04:40:00;1.48;;;1.20;;
3653;SDS011;70277;54.302;10.064;2023-07-20T04:42:27;2.40;;;1.30;;
3653;SDS011;70277;54.302;10.064;2023-07-20T04:44:54;1.90;;;1.10;;
3653;SDS011;70277;54.302;10.064;2023-07-20T04:47:20;2.05;;;1.23;;
3653;SDS011;70277;54.302;10.064;2023-07-20T04:49:47;2.88;;;0.90;;
3653;SDS011;70277;54.302;10.064;2023-07-20T04:52:13;2.65;;;1.20;;
3653;SDS011;70277;54.302;10.064;2023-07-20T04:54:40;1.73;;;1.17;;
3653;SDS011;70277;54.302;10.064;2023-07-20T04:57:10;1.38;;;1.00;;
3653;SDS011;70277;54.302;10.064;2023-07-20T04:59:38;3.25;;;1.15;;
3653;SDS011;70277;54.302;10.064;2023-07-20T05:02:04;2.47;;;1.10;;
3653;SDS011;70277;54.302;10.064;2023-07-20T05:04:31;0.75;;;0.75;;
3653;SDS011;70277;54.302;10.064;2023-07-20T05:07:04;1.60;;;1.20;;
3653;SDS011;70277;54.302;10.064;2023-07-20T05:09:31;2.60;;;1.10;;
3653;SDS011;70277;54.302;10.064;2023-07-20T05:11:57;3.50;;;1.05;;
3653;SDS011;70277;54.302;10.064;2023-07-20T05:14:24;4.75;;;1.80;;
3653;SDS011;70277;54.302;10.064;2023-07-20T05:16:50;2.78;;;0.90;;
3653;SDS011;70277;54.302;10.064;2023-07-20T05:19:17;1.67;;;0.90;;
3653;SDS011;70277;54.302;10.064;2023-07-20T05:21:44;1.00;;;0.90;;
3653;SDS011;70277;54.302;10.064;2023-07-20T05:24:10;8.75;;;1.13;;
3653;SDS011;70277;54.302;10.064;2023-07-20T05:26:36;7.75;;;1.20;;
3653;SDS011;70277;54.302;10.064;2023-07-20T05:29:04;1.23;;;0.80;;
3653;SDS011;70277;54.302;10.064;2023-07-20T05:31:30;4.90;;;1.40;;
3653;SDS011;70277;54.302;10.064;2023-07-20T05:33:57;2.17;;;1.38;;
3653;SDS011;70277;54.302;10.064;2023-07-20T05:36:27;5.68;;;1.08;;
3653;SDS011;70277;54.302;10.064;2023-07-20T05:38:53;3.60;;;1.20;;
3653;SDS011;70277;54.302;10.064;2023-07-20T05:41:20;1.20;;;1.10;;
3653;SDS011;70277;54.302;10.064;2023-07-20T05:43:48;1.23;;;1.13;;
3653;SDS011;70277;54.302;10.064;2023-07-20T05:46:15;3.05;;;1.52;;
3653;SDS011;70277;54.302;10.064;2023-07-20T05:48:41;4.40;;;1.35;;
3653;SDS011;70277;54.302;10.064;2023-07-20T05:51:08;4.20;;;1.17;;
3653;SDS011;70277;54.302;10.064;2023-07-20T05:53:35;2.88;;;1.50;;
3653;SDS011;70277;54.302;10.064;2023-07-20T05:56:01;4.93;;;1.27;;
3653;SDS011;70277;54.302;10.064;2023-07-20T05:58:29;3.15;;;1.45;;
3653;SDS011;70277;54.302;10.064;2023-07-20T06:00:55;6.38;;;1.40;;
3653;SDS011;70277;54.302;10.064;2023-07-20T06:03:22;4.90;;;1.40;;
3653;SDS011;70277;54.302;10.064;2023-07-20T06:05:48;2.08;;;1.50;;
3653;SDS011;70277;54.302;10.064;2023-07-20T06:08:15;5.53;;;1.60;;
3653;SDS011;70277;54.302;10.064;2023-07-20T06:10:41;5.80;;;1.50;;
3653;SDS011;70277;54.302;10.064;2023-07-20T06:13:11;4.28;;;1.45;;
3653;SDS011;70277;54.302;10.064;2023-07-20T06:15:38;3.95;;;1.50;;
3653;SDS011;70277;54.302;10.064;2023-07-20T06:18:05;2.53;;;1.60;;
3653;SDS011;70277;54.302;10.064;2023-07-20T06:20:32;4.70;;;1.80;;
3653;SDS011;70277;54.302;10.064;2023-07-20T06:22:58;4.32;;;1.52;;
3653;SDS011;70277;54.302;10.064;2023-07-20T06:25:25;7.82;;;1.88;;
3653;SDS011;70277;54.302;10.064;2023-07-20T06:27:51;5.85;;;2.13;;
3653;SDS011;70277;54.302;10.064;2023-07-20T06:30:18;4.53;;;2.13;;
3653;SDS011;70277;54.302;10.064;2023-07-20T06:32:44;7.03;;;1.90;;
3653;SDS011;70277;54.302;10.064;2023-07-20T06:35:11;3.35;;;1.90;;
3653;SDS011;70277;54.302;10.064;2023-07-20T06:37:38;6.10;;;2.03;;
3653;SDS011;70277;54.302;10.064;2023-07-20T06:40:04;9.20;;;2.40;;
3653;SDS011;70277;54.302;10.064;2023-07-20T06:42:35;7.55;;;1.77;;
3653;SDS011;70277;54.302;10.064;2023-07-20T06:45:05;6.75;;;1.90;;
3653;SDS011;70277;54.302;10.064;2023-07-20T06:47:31;9.05;;;1.90;;
3653;SDS011;70277;54.302;10.064;2023-07-20T06:49:58;5.43;;;1.95;;
3653;SDS011;70277;54.302;10.064;2023-07-20T06:52:24;6.68;;;2.08;;
3653;SDS011;70277;54.302;10.064;2023-07-20T06:54:51;5.28;;;1.73;;
3653;SDS011;70277;54.302;10.064;2023-07-20T06:57:17;5.60;;;2.13;;
3653;SDS011;70277;54.302;10.064;2023-07-20T06:59:45;4.82;;;1.70;;
3653;SDS011;70277;54.302;10.064;2023-07-20T07:02:16;13.52;;;2.00;;
3653;SDS011;70277;54.302;10.064;2023-07-20T07:04:43;7.63;;;1.67;;
3653;SDS011;70277;54.302;10.064;2023-07-20T07:07:09;6.40;;;1.70;;
3653;SDS011;70277;54.302;10.064;2023-07-20T07:09:36;12.00;;;2.55;;
3653;SDS011;70277;54.302;10.064;2023-07-20T07:12:03;8.18;;;2.00;;
3653;SDS011;70277;54.302;10.064;2023-07-20T07:14:30;4.22;;;1.65;;
3653;SDS011;70277;54.302;10.064;2023-07-20T07:16:58;5.78;;;1.95;;
3653;SDS011;70277;54.302;10.064;2023-07-20T07:19:25;7.82;;;1.77;;
3653;SDS011;70277;54.302;10.064;2023-07-20T07:21:51;8.80;;;2.47;;
3653;SDS011;70277;54.302;10.064;2023-07-20T07:24:18;9.77;;;2.13;;
3653;SDS011;70277;54.302;10.064;2023-07-20T07:26:45;9.35;;;1.60;;
3653;SDS011;70277;54.302;10.064;2023-07-20T07:29:12;9.00;;;1.83;;
3653;SDS011;70277;54.302;10.064;2023-07-20T07:31:38;5.72;;;1.60;;
3653;SDS011;70277;54.302;10.064;2023-07-20T07:34:05;17.20;;;1.92;;
3653;SDS011;70277;54.302;10.064;2023-07-20T07:36:32;7.07;;;1.73;;
3653;SDS011;70277;54.302;10.064;2023-07-20T07:38:59;6.53;;;1.55;;
3653;SDS011;70277;54.302;10.064;2023-07-20T07:43:55;9.68;;;1.45;;
3653;SDS011;70277;54.302;10.064;2023-07-20T07:46:22;4.65;;;1.48;;
3653;SDS011;70277;54.302;10.064;2023-07-20T07:48:49;9.02;;;2.33;;
3653;SDS011;70277;54.302;10.064;2023-07-20T07:51:15;5.63;;;1.67;;
3653;SDS011;70277;54.302;10.064;2023-07-20T07:53:42;7.85;;;1.52;;
3653;SDS011;70277;54.302;10.064;2023-07-20T07:56:09;4.18;;;1.55;;
3653;SDS011;70277;54.302;10.064;2023-07-20T07:58:36;5.05;;;1.50;;
3653;SDS011;70277;54.302;10.064;2023-07-20T08:01:03;6.15;;;1.80;;
3653;SDS011;70277;54.302;10.064;2023-07-20T08:03:30;8.75;;;1.50;;
3653;SDS011;70277;54.302;10.064;2023-07-20T08:05:57;5.93;;;1.35;;
3653;SDS011;70277;54.302;10.064;2023-07-20T08:08:24;5.50;;;1.60;;
3653;SDS011;70277;54.302;10.064;2023-07-20T08:10:54;7.30;;;1.30;;
3653;SDS011;70277;54.302;10.064;2023-07-20T08:15:49;12.48;;;1.80;;
3653;SDS011;70277;54.302;10.064;2023-07-20T08:18:17;7.57;;;1.30;;
3653;SDS011;70277;54.302;10.064;2023-07-20T08:20:45;4.38;;;1.05;;
3653;SDS011;70277;54.302;10.064;2023-07-20T08:23:12;5.55;;;0.90;;
3653;SDS011;70277;54.302;10.064;2023-07-20T08:25:39;5.80;;;1.20;;
3653;SDS011;70277;54.302;10.064;2023-07-20T08:28:10;5.03;;;1.02;;
3653;SDS011;70277;54.302;10.064;2023-07-20T08:30:44;3.30;;;0.80;;
3653;SDS011;70277;54.302;10.064;2023-07-20T08:33:15;2.53;;;1.08;;
3653;SDS011;70277;54.302;10.064;2023-07-20T08:35:47;5.95;;;1.10;;
3653;SDS011;70277;54.302;10.064;2023-07-20T08:38:13;10.57;;;1.30;;
3653;SDS011;70277;54.302;10.064;2023-07-20T08:40:41;3.70;;;1.17;;
3653;SDS011;70277;54.302;10.064;2023-07-20T08:43:12;4.15;;;1.00;;
3653;SDS011;70277;54.302;10.064;2023-07-20T08:45:40;6.05;;;1.27;;
3653;SDS011;70277;54.302;10.064;2023-07-20T08:48:07;5.43;;;1.60;;
3653;SDS011;70277;54.302;10.064;2023-07-20T08:50:35;8.20;;;1.38;;
3653;SDS011;70277;54.302;10.064;2023-07-20T08:53:02;5.90;;;0.98;;
3653;SDS011;70277;54.302;10.064;2023-07-20T08:55:29;5.32;;;1.65;;
3653;SDS011;70277;54.302;10.064;2023-07-20T08:57:58;2.15;;;0.80;;
3653;SDS011;70277;54.302;10.064;2023-07-20T09:00:25;5.45;;;1.27;;
3653;SDS011;70277;54.302;10.064;2023-07-20T09:02:53;5.07;;;1.27;;
3653;SDS011;70277;54.302;10.064;2023-07-20T09:05:21;3.30;;;0.90;;
3653;SDS011;70277;54.302;10.064;2023-07-20T09:07:52;2.03;;;0.80;;
3653;SDS011;70277;54.302;10.064;2023-07-20T09:10:23;5.93;;;1.10;;
3653;SDS011;70277;54.302;10.064;2023-07-20T09:12:50;5.95;;;1.02;;
3653;SDS011;70277;54.302;10.064;2023-07-20T09:15:17;2.60;;;0.90;;
3653;SDS011;70277;54.302;10.064;2023-07-20T09:17:46;1.70;;;0.77;;
3653;SDS011;70277;54.302;10.064;2023-07-20T09:20:16;7.63;;;1.00;;
3653;SDS011;70277;54.302;10.064;2023-07-20T09:22:47;1.70;;;0.68;;
3653;SDS011;70277;54.302;10.064;2023-07-20T09:25:16;2.85;;;0.80;;
3653;SDS011;70277;54.302;10.064;2023-07-20T09:27:48;4.18;;;0.73;;
3653;SDS011;70277;54.302;10.064;2023-07-20T09:32:45;4.85;;;0.80;;
3653;SDS011;70277;54.302;10.064;2023-07-20T09:35:16;2.92;;;0.57;;
3653;SDS011;70277;54.302;10.064;2023-07-20T09:37:48;5.75;;;1.02;;
3653;SDS011;70277;54.302;10.064;2023-07-20T09:40:38;2.97;;;0.75;;
3653;SDS011;70277;54.302;10.064;2023-07-20T09:45:41;1.50;;;0.98;;
3653;SDS011;70277;54.302;10.064;2023-07-20T09:48:11;6.72;;;0.80;;
3653;SDS011;70277;54.302;10.064;2023-07-20T09:50:42;1.48;;;0.65;;
3653;SDS011;70277;54.302;10.064;2023-07-20T09:53:14;1.45;;;0.45;;
3653;SDS011;70277;54.302;10.064;2023-07-20T09:55:44;4.87;;;0.60;;
3653;SDS011;70277;54.302;10.064;2023-07-20T09:58:12;1.13;;;0.47;;
3653;SDS011;70277;54.302;10.064;2023-07-20T10:00:39;1.75;;;0.47;;
3653;SDS011;70277;54.302;10.064;2023-07-20T10:03:10;1.08;;;0.68;;
3653;SDS011;70277;54.302;10.064;2023-07-20T10:05:39;1.75;;;0.40;;
3653;SDS011;70277;54.302;10.064;2023-07-20T10:08:11;1.38;;;0.60;;
3653;SDS011;70277;54.302;10.064;2023-07-20T10:10:41;1.85;;;0.57;;
3653;SDS011;70277;54.302;10.064;2023-07-20T10:13:17;1.23;;;0.60;;
3653;SDS011;70277;54.302;10.064;2023-07-20T10:15:50;1.50;;;0.47;;
3653;SDS011;70277;54.302;10.064;2023-07-20T10:18:28;1.25;;;0.60;;
3653;SDS011;70277;54.302;10.064;2023-07-20T10:20:58;3.58;;;0.80;;
3653;SDS011;70277;54.302;10.064;2023-07-20T10:23:29;1.35;;;0.65;;
3653;SDS011;70277;54.302;10.064;2023-07-20T10:25:57;4.57;;;0.70;;
3653;SDS011;70277;54.302;10.064;2023-07-20T10:28:26;9.82;;;0.98;;
3653;SDS011;70277;54.302;10.064;2023-07-20T10:30:53;4.22;;;0.90;;
3653;SDS011;70277;54.302;10.064;2023-07-20T10:33:20;2.92;;;0.90;;
3653;SDS011;70277;54.302;10.064;2023-07-20T10:35:54;3.38;;;1.23;;
3653;SDS011;70277;54.302;10.064;2023-07-20T10:38:42;5.53;;;1.30;;
3653;SDS011;70277;54.302;10.064;2023-07-20T10:41:19;3.67;;;1.40;;
3653;SDS011;70277;54.302;10.064;2023-07-20T10:43:47;7.63;;;1.02;;
3653;SDS011;70277;54.302;10.064;2023-07-20T10:46:14;3.67;;;0.95;;
3653;SDS011;70277;54.302;10.064;2023-07-20T10:48:59;7.82;;;1.25;;
3653;SDS011;70277;54.302;10.064;2023-07-20T10:51:28;3.60;;;1.13;;
3653;SDS011;70277;54.302;10.064;2023-07-20T10:53:57;5.43;;;1.20;;
3653;SDS011;70277;54.302;10.064;2023-07-20T10:56:27;5.82;;;1.20;;
3653;SDS011;70277;54.302;10.064;2023-07-20T10:58:59;6.45;;;1.30;;
3653;SDS011;70277;54.302;10.064;2023-07-20T11:01:29;5.80;;;1.05;;
3653;SDS011;70277;54.302;10.064;2023-07-20T11:03:59;6.13;;;1.20;;
3653;SDS011;70277;54.302;10.064;2023-07-20T11:06:30;7.25;;;1.42;;
3653;SDS011;70277;54.302;10.064;2023-07-20T11:09:05;5.93;;;1.27;;
3653;SDS011;70277;54.302;10.064;2023-07-20T11:11:38;5.00;;;1.30;;
3653;SDS011;70277;54.302;10.064;2023-07-20T11:14:06;5.63;;;1.00;;
3653;SDS011;70277;54.302;10.064;2023-07-20T11:16:48;7.20;;;1.17;;
3653;SDS011;70277;54.302;10.064;2023-07-20T11:19:20;6.00;;;1.17;;
3653;SDS011;70277;54.302;10.064;2023-07-20T11:21:57;8.10;;;1.40;;
3653;SDS011;70277;54.302;10.064;2023-07-20T11:24:29;6.70;;;1.25;;
3653;SDS011;70277;54.302;10.064;2023-07-20T11:26:58;6.93;;;1.38;;
3653;SDS011;70277;54.302;10.064;2023-07-20T11:29:24;3.50;;;1.00;;
3653;SDS011;70277;54.302;10.064;2023-07-20T11:31:58;6.75;;;1.40;;
3653;SDS011;70277;54.302;10.064;2023-07-20T11:34:27;8.40;;;1.60;;
3653;SDS011;70277;54.302;10.064;2023-07-20T11:36:54;5.28;;;1.42;;
3653;SDS011;70277;54.302;10.064;2023-07-20T11:39:23;9.07;;;1.30;;
3653;SDS011;70277;54.302;10.064;2023-07-20T11:41:52;6.65;;;1.55;;
3653;SDS011;70277;54.302;10.064;2023-07-20T11:44:21;4.35;;;1.08;;
3653;SDS011;70277;54.302;10.064;2023-07-20T11:49:36;4.72;;;1.38;;
3653;SDS011;70277;54.302;10.064;2023-07-20T11:52:10;5.32;;;1.27;;
3653;SDS011;70277;54.302;10.064;2023-07-20T11:54:39;3.55;;;1.27;;
3653;SDS011;70277;54.302;10.064;2023-07-20T11:57:19;6.90;;;1.33;;
3653;SDS011;70277;54.302;10.064;2023-07-20T11:59:56;4.95;;;1.35;;
3653;SDS011;70277;54.302;10.064;2023-07-20T12:02:26;4.32;;;1.23;;
3653;SDS011;70277;54.302;10.064;2023-07-20T12:04:53;5.47;;;1.35;;
3653;SDS011;70277;54.302;10.064;2023-07-20T12:07:21;7.97;;;1.63;;
3653;SDS011;70277;54.302;10.064;2023-07-20T12:10:06;6.82;;;1.33;;
3653;SDS011;70277;54.302;10.064;2023-07-20T12:12:38;6.25;;;1.27;;
3653;SDS011;70277;54.302;10.064;2023-07-20T12:15:27;4.22;;;1.40;;
3653;SDS011;70277;54.302;10.064;2023-07-20T12:17:56;5.57;;;1.23;;
3653;SDS011;70277;54.302;10.064;2023-07-20T12:20:24;3.78;;;1.05;;
3653;SDS011;70277;54.302;10.064;2023-07-20T12:23:00;3.67;;;1.20;;
3653;SDS011;70277;54.302;10.064;2023-07-20T12:25:47;3.35;;;1.25;;
3653;SDS011;70277;54.302;10.064;2023-07-20T12:28:15;1.48;;;1.13;;
3653;SDS011;70277;54.302;10.064;2023-07-20T12:30:43;8.15;;;1.10;;
3653;SDS011;70277;54.302;10.064;2023-07-20T12:33:10;6.10;;;1.10;;
3653;SDS011;70277;54.302;10.064;2023-07-20T12:35:44;3.40;;;1.20;;
3653;SDS011;70277;54.302;10.064;2023-07-20T12:38:11;3.22;;;1.02;;
3653;SDS011;70277;54.302;10.064;2023-07-20T12:40:38;3.22;;;1.20;;
3653;SDS011;70277;54.302;10.064;2023-07-20T12:43:04;6.90;;;1.40;;
3653;SDS011;70277;54.302;10.064;2023-07-20T12:45:31;5.13;;;1.48;;
3653;SDS011;70277;54.302;10.064;2023-07-20T12:47:57;4.97;;;1.55;;
3653;SDS011;70277;54.302;10.064;2023-07-20T12:50:24;6.80;;;1.30;;
3653;SDS011;70277;54.302;10.064;2023-07-20T12:52:51;4.47;;;1.55;;
3653;SDS011;70277;54.302;10.064;2023-07-20T12:55:17;10.40;;;2.47;;
3653;SDS011;70277;54.302;10.064;2023-07-20T12:57:45;8.63;;;1.45;;
3653;SDS011;70277;54.302;10.064;2023-07-20T13:00:13;2.35;;;0.85;;
3653;SDS011;70277;54.302;10.064;2023-07-20T13:02:40;4.00;;;1.25;;
3653;SDS011;70277;54.302;10.064;2023-07-20T13:05:07;11.18;;;1.75;;
3653;SDS011;70277;54.302;10.064;2023-07-20T13:07:35;10.90;;;1.42;;
3653;SDS011;70277;54.302;10.064;2023-07-20T13:10:06;3.53;;;1.00;;
3653;SDS011;70277;54.302;10.064;2023-07-20T13:12:34;3.13;;;0.95;;
3653;SDS011;70277;54.302;10.064;2023-07-20T13:15:02;4.75;;;1.17;;
3653;SDS011;70277;54.302;10.064;2023-07-20T13:17:32;3.75;;;0.93;;
3653;SDS011;70277;54.302;10.064;2023-07-20T13:20:03;6.47;;;1.27;;
3653;SDS011;70277;54.302;10.064;2023-07-20T13:22:34;0.95;;;0.77;;
3653;SDS011;70277;54.302;10.064;2023-07-20T13:25:01;4.80;;;1.00;;
3653;SDS011;70277;54.302;10.064;2023-07-20T13:27:28;1.77;;;0.85;;
3653;SDS011;70277;54.302;10.064;2023-07-20T13:29:58;2.80;;;1.40;;
3653;SDS011;70277;54.302;10.064;2023-07-20T13:32:25;4.30;;;1.00;;
3653;SDS011;70277;54.302;10.064;2023-07-20T13:34:52;3.15;;;0.80;;
3653;SDS011;70277;54.302;10.064;2023-07-20T13:37:18;4.72;;;1.20;;
3653;SDS011;70277;54.302;10.064;2023-07-20T13:39:47;4.68;;;1.15;;
3653;SDS011;70277;54.302;10.064;2023-07-20T13:42:15;4.68;;;1.23;;
3653;SDS011;70277;54.302;10.064;2023-07-20T13:44:44;5.45;;;1.20;;
3653;SDS011;70277;54.302;10.064;2023-07-20T13:47:12;1.70;;;0.90;;
3653;SDS011;70277;54.302;10.064;2023-07-20T13:49:42;4.60;;;1.15;;
3653;SDS011;70277;54.302;10.064;2023-07-20T13:52:13;7.25;;;1.10;;
3653;SDS011;70277;54.302;10.064;2023-07-20T13:54:42;2.47;;;1.25;;
3653;SDS011;70277;54.302;10.064;2023-07-20T13:57:11;3.30;;;1.02;;
3653;SDS011;70277;54.302;10.064;2023-07-20T13:59:38;4.68;;;1.30;;
3653;SDS011;70277;54.302;10.064;2023-07-20T14:02:04;4.05;;;0.88;;
3653;SDS011;70277;54.302;10.064;2023-07-20T14:04:34;3.38;;;1.17;;
3653;SDS011;70277;54.302;10.064;2023-07-20T14:07:02;3.70;;;1.30;;
3653;SDS011;70277;54.302;10.064;2023-07-20T14:09:28;5.68;;;1.00;;
3653;SDS011;70277;54.302;10.064;2023-07-20T14:11:55;2.83;;;1.10;;
3653;SDS011;70277;54.302;10.064;2023-07-20T14:14:24;4.75;;;1.00;;
3653;SDS011;70277;54.302;10.064;2023-07-20T14:16:51;2.22;;;0.93;;
3653;SDS011;70277;54.302;10.064;2023-07-20T14:19:17;6.47;;;0.93;;
3653;SDS011;70277;54.302;10.064;2023-07-20T14:21:44;6.78;;;1.13;;
3653;SDS011;70277;54.302;10.064;2023-07-20T14:24:10;5.20;;;1.25;;
3653;SDS011;70277;54.302;10.064;2023-07-20T14:26:37;3.97;;;0.90;;
3653;SDS011;70277;54.302;10.064;2023-07-20T14:29:05;4.88;;;1.15;;
3653;SDS011;70277;54.302;10.064;2023-07-20T14:31:31;4.55;;;1.05;;
3653;SDS011;70277;54.302;10.064;2023-07-20T14:33:58;3.72;;;1.00;;
3653;SDS011;70277;54.302;10.064;2023-07-20T14:36:25;5.07;;;1.08;;
3653;SDS011;70277;54.302;10.064;2023-07-20T14:38:52;7.85;;;1.52;;
3653;SDS011;70277;54.302;10.064;2023-07-20T14:41:19;4.88;;;1.20;;
3653;SDS011;70277;54.302;10.064;2023-07-20T14:43:45;3.42;;;1.20;;
3653;SDS011;70277;54.302;10.064;2023-07-20T14:46:12;4.55;;;0.90;;
3653;SDS011;70277;54.302;10.064;2023-07-20T14:48:38;3.95;;;1.33;;
3653;SDS011;70277;54.302;10.064;2023-07-20T14:51:05;5.32;;;1.00;;
3653;SDS011;70277;54.302;10.064;2023-07-20T14:53:31;2.55;;;1.10;;
3653;SDS011;70277;54.302;10.064;2023-07-20T14:56:01;4.32;;;1.10;;
3653;SDS011;70277;54.302;10.064;2023-07-20T14:58:29;5.78;;;1.17;;
3653;SDS011;70277;54.302;10.064;2023-07-20T15:00:59;6.53;;;1.27;;
3653;SDS011;70277;54.302;10.064;2023-07-20T15:03:26;4.57;;;1.00;;
3653;SDS011;70277;54.302;10.064;2023-07-20T15:05:52;7.13;;;1.00;;
3653;SDS011;70277;54.302;10.064;2023-07-20T15:08:19;6.05;;;1.33;;
3653;SDS011;70277;54.302;10.064;2023-07-20T15:10:46;5.32;;;1.27;;
3653;SDS011;70277;54.302;10.064;2023-07-20T15:13:12;8.05;;;1.50;;
3653;SDS011;70277;54.302;10.064;2023-07-20T15:15:39;5.85;;;1.23;;
3653;SDS011;70277;54.302;10.064;2023-07-20T15:18:05;2.72;;;0.90;;
3653;SDS011;70277;54.302;10.064;2023-07-20T15:20:32;6.40;;;1.73;;